sensor_id;sensor_type;location;lat;lon;timestamp;P1;durP1;ratioP1;P2;durP2;ratioP2
75655;SDS011;64252;51.094;13.714;2024-02-23T00:00:50;3.33;;;1.27;;
75655;SDS011;64252;51.094;13.714;2024-02-23T00:03:17;2.67;;;1.20;;
75655;SDS011;64252;51.094;13.714;2024-02-23T00:05:43;3.47;;;1.58;;
75655;SDS011;64252;51.094;13.714;2024-02-23T00:08:09;4.00;;;1.30;;
75655;SDS011;64252;51.094;13.714;2024-02-23T00:10:35;2.63;;;1.17;;
75655;SDS011;64252;51.094;13.714;2024-02-23T00:13:00;2.85;;;1.15;;
75655;SDS011;64252;51.094;13.714;2024-02-23T00:15:27;2.78;;;1.23;;
75655;SDS011;64252;51.094;13.714;2024-02-23T00:17:52;2.78;;;1.30;;
75655;SDS011;64252;51.094;13.714;2024-02-23T00:20:18;2.38;;;1.20;;
75655;SDS011;64252;51.094;13.714;2024-02-23T00:22:43;2.53;;;1.08;;
75655;SDS011;64252;51.094;13.714;2024-02-23T00:25:09;2.40;;;1.00;;
75655;SDS011;64252;51.094;13.714;2024-02-23T00:27:34;2.35;;;0.80;;
75655;SDS011;64252;51.094;13.714;2024-02-23T00:30:00;2.47;;;1.00;;
75655;SDS011;64252;51.094;13.714;2024-02-23T00:32:26;2.67;;;1.05;;
75655;SDS011;64252;51.094;13.714;2024-02-23T00:34:51;2.38;;;0.80;;
75655;SDS011;64252;51.094;13.714;2024-02-23T00:37:17;1.90;;;0.70;;
75655;SDS011;64252;51.094;13.714;2024-02-23T00:39:42;3.53;;;1.05;;
75655;SDS011;64252;51.094;13.714;2024-02-23T00:42:08;2.28;;;0.98;;
75655;SDS011;64252;51.094;13.714;2024-02-23T00:44:33;2.13;;;0.80;;
75655;SDS011;64252;51.094;13.714;2024-02-23T00:46:59;2.35;;;0.80;;
75655;SDS011;64252;51.094;13.714;2024-02-23T00:49:27;1.88;;;0.70;;
75655;SDS011;64252;51.094;13.714;2024-02-23T00:51:53;1.90;;;0.63;;
75655;SDS011;64252;51.094;13.714;2024-02-23T00:54:19;1.60;;;0.50;;
75655;SDS011;64252;51.094;13.714;2024-02-23T00:56:44;1.27;;;0.47;;
75655;SDS011;64252;51.094;13.714;2024-02-23T00:59:10;0.98;;;0.30;;
75655;SDS011;64252;51.094;13.714;2024-02-23T01:01:36;1.10;;;0.30;;
75655;SDS011;64252;51.094;13.714;2024-02-23T01:04:01;1.20;;;0.40;;
75655;SDS011;64252;51.094;13.714;2024-02-23T01:06:27;1.02;;;0.40;;
75655;SDS011;64252;51.094;13.714;2024-02-23T01:08:53;1.55;;;0.50;;
75655;SDS011;64252;51.094;13.714;2024-02-23T01:11:19;1.20;;;0.40;;
75655;SDS011;64252;51.094;13.714;2024-02-23T01:13:44;1.40;;;0.50;;
75655;SDS011;64252;51.094;13.714;2024-02-23T01:16:10;1.15;;;0.30;;
75655;SDS011;64252;51.094;13.714;2024-02-23T01:18:35;1.60;;;0.60;;
75655;SDS011;64252;51.094;13.714;2024-02-23T01:21:02;1.38;;;0.47;;
75655;SDS011;64252;51.094;13.714;2024-02-23T01:23:30;1.60;;;0.40;;
75655;SDS011;64252;51.094;13.714;2024-02-23T01:25:56;1.92;;;0.40;;
75655;SDS011;64252;51.094;13.714;2024-02-23T01:28:21;2.08;;;0.40;;
75655;SDS011;64252;51.094;13.714;2024-02-23T01:30:47;1.40;;;0.40;;
75655;SDS011;64252;51.094;13.714;2024-02-23T01:33:13;0.77;;;0.40;;
75655;SDS011;64252;51.094;13.714;2024-02-23T01:35:38;2.15;;;0.50;;
75655;SDS011;64252;51.094;13.714;2024-02-23T01:38:04;1.02;;;0.30;;
75655;SDS011;64252;51.094;13.714;2024-02-23T01:40:30;1.42;;;0.40;;
75655;SDS011;64252;51.094;13.714;2024-02-23T01:43:02;1.10;;;0.40;;
75655;SDS011;64252;51.094;13.714;2024-02-23T01:45:29;0.82;;;0.32;;
75655;SDS011;64252;51.094;13.714;2024-02-23T01:47:55;1.60;;;0.32;;
75655;SDS011;64252;51.094;13.714;2024-02-23T01:50:21;0.98;;;0.40;;
75655;SDS011;64252;51.094;13.714;2024-02-23T01:52:47;1.30;;;0.40;;
75655;SDS011;64252;51.094;13.714;2024-02-23T01:55:13;1.95;;;0.40;;
75655;SDS011;64252;51.094;13.714;2024-02-23T01:57:39;1.00;;;0.38;;
75655;SDS011;64252;51.094;13.714;2024-02-23T02:00:05;1.05;;;0.40;;
75655;SDS011;64252;51.094;13.714;2024-02-23T02:02:35;0.88;;;0.20;;
75655;SDS011;64252;51.094;13.714;2024-02-23T02:05:01;0.82;;;0.20;;
75655;SDS011;64252;51.094;13.714;2024-02-23T02:07:27;0.90;;;0.40;;
75655;SDS011;64252;51.094;13.714;2024-02-23T02:09:52;0.82;;;0.30;;
75655;SDS011;64252;51.094;13.714;2024-02-23T02:12:28;1.45;;;0.50;;
75655;SDS011;64252;51.094;13.714;2024-02-23T02:17:20;1.63;;;0.55;;
75655;SDS011;64252;51.094;13.714;2024-02-23T02:19:49;1.23;;;0.40;;
75655;SDS011;64252;51.094;13.714;2024-02-23T02:22:15;1.15;;;0.40;;
75655;SDS011;64252;51.094;13.714;2024-02-23T02:24:41;1.30;;;0.30;;
75655;SDS011;64252;51.094;13.714;2024-02-23T02:27:09;1.10;;;0.40;;
75655;SDS011;64252;51.094;13.714;2024-02-23T02:29:35;1.70;;;0.50;;
75655;SDS011;64252;51.094;13.714;2024-02-23T02:32:01;0.80;;;0.30;;
75655;SDS011;64252;51.094;13.714;2024-02-23T02:34:27;1.25;;;0.40;;
75655;SDS011;64252;51.094;13.714;2024-02-23T02:36:54;1.02;;;0.40;;
75655;SDS011;64252;51.094;13.714;2024-02-23T02:39:20;1.50;;;0.40;;
75655;SDS011;64252;51.094;13.714;2024-02-23T02:41:47;1.02;;;0.30;;
75655;SDS011;64252;51.094;13.714;2024-02-23T02:44:13;1.92;;;0.50;;
75655;SDS011;64252;51.094;13.714;2024-02-23T02:46:40;1.33;;;0.40;;
75655;SDS011;64252;51.094;13.714;2024-02-23T02:49:06;1.38;;;0.30;;
75655;SDS011;64252;51.094;13.714;2024-02-23T02:51:32;0.85;;;0.40;;
75655;SDS011;64252;51.094;13.714;2024-02-23T02:53:57;0.77;;;0.30;;
75655;SDS011;64252;51.094;13.714;2024-02-23T02:56:24;1.45;;;0.35;;
75655;SDS011;64252;51.094;13.714;2024-02-23T02:58:50;2.30;;;0.40;;
75655;SDS011;64252;51.094;13.714;2024-02-23T03:01:15;1.27;;;0.38;;
75655;SDS011;64252;51.094;13.714;2024-02-23T03:03:41;0.93;;;0.30;;
75655;SDS011;64252;51.094;13.714;2024-02-23T03:06:09;1.33;;;0.40;;
75655;SDS011;64252;51.094;13.714;2024-02-23T03:08:34;0.93;;;0.30;;
75655;SDS011;64252;51.094;13.714;2024-02-23T03:11:00;0.68;;;0.30;;
75655;SDS011;64252;51.094;13.714;2024-02-23T03:13:26;1.25;;;0.38;;
75655;SDS011;64252;51.094;13.714;2024-02-23T03:15:51;1.10;;;0.40;;
75655;SDS011;64252;51.094;13.714;2024-02-23T03:18:17;1.13;;;0.40;;
75655;SDS011;64252;51.094;13.714;2024-02-23T03:20:42;0.80;;;0.28;;
75655;SDS011;64252;51.094;13.714;2024-02-23T03:23:08;0.90;;;0.30;;
75655;SDS011;64252;51.094;13.714;2024-02-23T03:25:33;0.22;;;0.20;;
75655;SDS011;64252;51.094;13.714;2024-02-23T03:27:59;1.88;;;0.35;;
75655;SDS011;64252;51.094;13.714;2024-02-23T03:30:25;2.40;;;0.30;;
75655;SDS011;64252;51.094;13.714;2024-02-23T03:32:51;1.88;;;0.52;;
75655;SDS011;64252;51.094;13.714;2024-02-23T03:35:16;1.23;;;0.30;;
75655;SDS011;64252;51.094;13.714;2024-02-23T03:37:42;1.35;;;0.40;;
75655;SDS011;64252;51.094;13.714;2024-02-23T03:40:08;1.02;;;0.32;;
75655;SDS011;64252;51.094;13.714;2024-02-23T03:42:35;1.23;;;0.30;;
75655;SDS011;64252;51.094;13.714;2024-02-23T03:45:01;1.23;;;0.30;;
75655;SDS011;64252;51.094;13.714;2024-02-23T03:47:26;0.90;;;0.30;;
75655;SDS011;64252;51.094;13.714;2024-02-23T03:49:52;1.77;;;0.40;;
75655;SDS011;64252;51.094;13.714;2024-02-23T03:52:18;1.00;;;0.30;;
75655;SDS011;64252;51.094;13.714;2024-02-23T03:54:44;1.48;;;0.40;;
75655;SDS011;64252;51.094;13.714;2024-02-23T03:57:12;0.65;;;0.25;;
75655;SDS011;64252;51.094;13.714;2024-02-23T03:59:37;0.68;;;0.20;;
75655;SDS011;64252;51.094;13.714;2024-02-23T04:02:04;1.75;;;0.52;;
75655;SDS011;64252;51.094;13.714;2024-02-23T04:04:30;0.80;;;0.30;;
75655;SDS011;64252;51.094;13.714;2024-02-23T04:06:55;1.10;;;0.30;;
75655;SDS011;64252;51.094;13.714;2024-02-23T04:09:24;2.50;;;0.28;;
75655;SDS011;64252;51.094;13.714;2024-02-23T04:11:51;1.48;;;0.30;;
75655;SDS011;64252;51.094;13.714;2024-02-23T04:14:16;0.95;;;0.20;;
75655;SDS011;64252;51.094;13.714;2024-02-23T04:16:47;1.27;;;0.20;;
75655;SDS011;64252;51.094;13.714;2024-02-23T04:19:13;1.80;;;0.43;;
75655;SDS011;64252;51.094;13.714;2024-02-23T04:21:42;0.88;;;0.30;;
75655;SDS011;64252;51.094;13.714;2024-02-23T04:24:07;1.58;;;0.30;;
75655;SDS011;64252;51.094;13.714;2024-02-23T04:26:34;0.50;;;0.20;;
75655;SDS011;64252;51.094;13.714;2024-02-23T04:28:59;3.50;;;0.40;;
75655;SDS011;64252;51.094;13.714;2024-02-23T04:31:25;0.40;;;0.15;;
75655;SDS011;64252;51.094;13.714;2024-02-23T04:33:50;1.60;;;0.30;;
75655;SDS011;64252;51.094;13.714;2024-02-23T04:36:18;3.33;;;0.30;;
75655;SDS011;64252;51.094;13.714;2024-02-23T04:38:45;1.15;;;0.20;;
75655;SDS011;64252;51.094;13.714;2024-02-23T04:41:11;2.40;;;0.25;;
75655;SDS011;64252;51.094;13.714;2024-02-23T04:43:36;0.52;;;0.20;;
75655;SDS011;64252;51.094;13.714;2024-02-23T04:46:02;1.20;;;0.25;;
75655;SDS011;64252;51.094;13.714;2024-02-23T04:48:31;1.85;;;0.30;;
75655;SDS011;64252;51.094;13.714;2024-02-23T04:50:57;1.95;;;0.30;;
75655;SDS011;64252;51.094;13.714;2024-02-23T04:53:23;2.38;;;0.40;;
75655;SDS011;64252;51.094;13.714;2024-02-23T04:55:52;0.73;;;0.30;;
75655;SDS011;64252;51.094;13.714;2024-02-23T05:00:47;1.63;;;0.40;;
75655;SDS011;64252;51.094;13.714;2024-02-23T05:03:13;1.20;;;0.38;;
75655;SDS011;64252;51.094;13.714;2024-02-23T05:05:39;4.80;;;0.38;;
75655;SDS011;64252;51.094;13.714;2024-02-23T05:08:04;1.25;;;0.25;;
75655;SDS011;64252;51.094;13.714;2024-02-23T05:10:33;0.77;;;0.30;;
75655;SDS011;64252;51.094;13.714;2024-02-23T05:12:58;1.05;;;0.28;;
75655;SDS011;64252;51.094;13.714;2024-02-23T05:15:24;1.05;;;0.30;;
75655;SDS011;64252;51.094;13.714;2024-02-23T05:17:49;1.13;;;0.40;;
75655;SDS011;64252;51.094;13.714;2024-02-23T05:20:15;0.68;;;0.20;;
75655;SDS011;64252;51.094;13.714;2024-02-23T05:22:40;1.15;;;0.38;;
75655;SDS011;64252;51.094;13.714;2024-02-23T05:25:06;1.42;;;0.30;;
75655;SDS011;64252;51.094;13.714;2024-02-23T05:27:32;2.00;;;0.30;;
75655;SDS011;64252;51.094;13.714;2024-02-23T05:29:58;2.63;;;0.45;;
75655;SDS011;64252;51.094;13.714;2024-02-23T05:32:23;0.73;;;0.30;;
75655;SDS011;64252;51.094;13.714;2024-02-23T05:34:49;0.98;;;0.47;;
75655;SDS011;64252;51.094;13.714;2024-02-23T05:37:18;3.90;;;0.50;;
75655;SDS011;64252;51.094;13.714;2024-02-23T05:39:43;0.90;;;0.20;;
75655;SDS011;64252;51.094;13.714;2024-02-23T05:42:11;2.08;;;0.40;;
75655;SDS011;64252;51.094;13.714;2024-02-23T05:44:38;1.80;;;0.40;;
75655;SDS011;64252;51.094;13.714;2024-02-23T05:47:04;3.95;;;0.43;;
75655;SDS011;64252;51.094;13.714;2024-02-23T05:49:30;0.98;;;0.30;;
75655;SDS011;64252;51.094;13.714;2024-02-23T05:51:56;2.85;;;0.38;;
75655;SDS011;64252;51.094;13.714;2024-02-23T05:54:21;1.23;;;0.30;;
75655;SDS011;64252;51.094;13.714;2024-02-23T05:56:47;1.10;;;0.30;;
75655;SDS011;64252;51.094;13.714;2024-02-23T05:59:12;1.33;;;0.40;;
75655;SDS011;64252;51.094;13.714;2024-02-23T06:01:38;1.17;;;0.30;;
75655;SDS011;64252;51.094;13.714;2024-02-23T06:04:03;3.40;;;0.45;;
75655;SDS011;64252;51.094;13.714;2024-02-23T06:06:30;1.65;;;0.30;;
75655;SDS011;64252;51.094;13.714;2024-02-23T06:08:56;1.17;;;0.40;;
75655;SDS011;64252;51.094;13.714;2024-02-23T06:11:22;1.38;;;0.38;;
75655;SDS011;64252;51.094;13.714;2024-02-23T06:13:47;2.80;;;0.50;;
75655;SDS011;64252;51.094;13.714;2024-02-23T06:16:13;1.23;;;0.35;;
75655;SDS011;64252;51.094;13.714;2024-02-23T06:18:38;2.88;;;0.40;;
75655;SDS011;64252;51.094;13.714;2024-02-23T06:21:14;2.20;;;0.45;;
75655;SDS011;64252;51.094;13.714;2024-02-23T06:23:40;2.47;;;0.40;;
75655;SDS011;64252;51.094;13.714;2024-02-23T06:26:06;1.67;;;0.35;;
75655;SDS011;64252;51.094;13.714;2024-02-23T06:28:32;3.47;;;0.40;;
75655;SDS011;64252;51.094;13.714;2024-02-23T06:30:58;1.40;;;0.30;;
75655;SDS011;64252;51.094;13.714;2024-02-23T06:33:23;1.27;;;0.35;;
75655;SDS011;64252;51.094;13.714;2024-02-23T06:35:50;1.98;;;0.40;;
75655;SDS011;64252;51.094;13.714;2024-02-23T06:38:18;3.03;;;0.73;;
75655;SDS011;64252;51.094;13.714;2024-02-23T06:40:44;1.48;;;0.32;;
75655;SDS011;64252;51.094;13.714;2024-02-23T06:43:09;1.38;;;0.50;;
75655;SDS011;64252;51.094;13.714;2024-02-23T06:45:35;3.40;;;0.90;;
75655;SDS011;64252;51.094;13.714;2024-02-23T06:48:00;4.55;;;1.67;;
75655;SDS011;64252;51.094;13.714;2024-02-23T06:50:26;9.15;;;4.60;;
75655;SDS011;64252;51.094;13.714;2024-02-23T06:52:52;7.32;;;3.45;;
75655;SDS011;64252;51.094;13.714;2024-02-23T06:55:17;9.60;;;4.00;;
75655;SDS011;64252;51.094;13.714;2024-02-23T06:57:43;11.30;;;5.65;;
75655;SDS011;64252;51.094;13.714;2024-02-23T07:00:09;10.35;;;4.75;;
75655;SDS011;64252;51.094;13.714;2024-02-23T07:02:34;5.05;;;1.73;;
75655;SDS011;64252;51.094;13.714;2024-02-23T07:05:02;4.50;;;1.90;;
75655;SDS011;64252;51.094;13.714;2024-02-23T07:07:32;2.58;;;0.90;;
75655;SDS011;64252;51.094;13.714;2024-02-23T07:10:02;3.85;;;1.40;;
75655;SDS011;64252;51.094;13.714;2024-02-23T07:32:27;3.13;;;1.00;;
75655;SDS011;64252;51.094;13.714;2024-02-23T07:50:02;3.17;;;0.80;;
75655;SDS011;64252;51.094;13.714;2024-02-23T08:13:12;3.42;;;1.20;;
75655;SDS011;64252;51.094;13.714;2024-02-23T08:26:39;3.75;;;1.30;;
75655;SDS011;64252;51.094;13.714;2024-02-23T08:29:09;3.28;;;1.10;;
75655;SDS011;64252;51.094;13.714;2024-02-23T08:38:04;4.10;;;1.30;;
75655;SDS011;64252;51.094;13.714;2024-02-23T08:40:32;4.50;;;1.75;;
75655;SDS011;64252;51.094;13.714;2024-02-23T08:53:53;2.13;;;0.70;;
75655;SDS011;64252;51.094;13.714;2024-02-23T08:56:20;5.63;;;2.20;;
75655;SDS011;64252;51.094;13.714;2024-02-23T08:58:46;3.58;;;1.60;;
75655;SDS011;64252;51.094;13.714;2024-02-23T09:01:12;4.85;;;1.42;;
75655;SDS011;64252;51.094;13.714;2024-02-23T09:03:39;5.72;;;1.33;;
75655;SDS011;64252;51.094;13.714;2024-02-23T09:06:05;4.65;;;1.55;;
75655;SDS011;64252;51.094;13.714;2024-02-23T09:11:18;3.33;;;1.30;;
75655;SDS011;64252;51.094;13.714;2024-02-23T09:13:48;7.28;;;2.75;;
75655;SDS011;64252;51.094;13.714;2024-02-23T09:16:16;5.45;;;1.00;;
75655;SDS011;64252;51.094;13.714;2024-02-23T09:19:10;2.75;;;1.15;;
75655;SDS011;64252;51.094;13.714;2024-02-23T09:28:21;2.35;;;0.80;;
75655;SDS011;64252;51.094;13.714;2024-02-23T09:30:46;3.50;;;0.70;;
75655;SDS011;64252;51.094;13.714;2024-02-23T09:36:08;3.03;;;0.60;;
75655;SDS011;64252;51.094;13.714;2024-02-23T09:38:41;7.40;;;2.35;;
75655;SDS011;64252;51.094;13.714;2024-02-23T09:41:20;4.55;;;1.83;;
75655;SDS011;64252;51.094;13.714;2024-02-23T09:43:48;3.38;;;1.17;;
75655;SDS011;64252;51.094;13.714;2024-02-23T09:51:49;3.40;;;1.42;;
75655;SDS011;64252;51.094;13.714;2024-02-23T09:57:55;4.00;;;1.00;;
75655;SDS011;64252;51.094;13.714;2024-02-23T10:00:35;1.75;;;0.47;;
75655;SDS011;64252;51.094;13.714;2024-02-23T10:03:06;2.05;;;0.50;;
75655;SDS011;64252;51.094;13.714;2024-02-23T10:05:49;4.07;;;1.25;;
75655;SDS011;64252;51.094;13.714;2024-02-23T10:08:16;3.47;;;1.40;;
75655;SDS011;64252;51.094;13.714;2024-02-23T10:10:50;4.95;;;1.45;;
75655;SDS011;64252;51.094;13.714;2024-02-23T10:13:19;4.32;;;1.40;;
75655;SDS011;64252;51.094;13.714;2024-02-23T10:15:57;5.25;;;2.30;;
75655;SDS011;64252;51.094;13.714;2024-02-23T10:18:28;4.57;;;1.48;;
75655;SDS011;64252;51.094;13.714;2024-02-23T10:21:06;3.25;;;0.70;;
75655;SDS011;64252;51.094;13.714;2024-02-23T10:23:44;2.42;;;0.70;;
75655;SDS011;64252;51.094;13.714;2024-02-23T10:26:29;3.20;;;0.50;;
75655;SDS011;64252;51.094;13.714;2024-02-23T10:31:48;3.97;;;0.50;;
75655;SDS011;64252;51.094;13.714;2024-02-23T10:34:17;5.28;;;0.98;;
75655;SDS011;64252;51.094;13.714;2024-02-23T10:36:44;5.25;;;0.95;;
75655;SDS011;64252;51.094;13.714;2024-02-23T10:39:15;3.78;;;0.68;;
75655;SDS011;64252;51.094;13.714;2024-02-23T10:41:44;1.33;;;0.43;;
75655;SDS011;64252;51.094;13.714;2024-02-23T10:44:15;2.90;;;0.82;;
75655;SDS011;64252;51.094;13.714;2024-02-23T10:46:42;3.40;;;0.50;;
75655;SDS011;64252;51.094;13.714;2024-02-23T10:49:09;2.20;;;0.47;;
75655;SDS011;64252;51.094;13.714;2024-02-23T10:51:38;3.53;;;0.85;;
75655;SDS011;64252;51.094;13.714;2024-02-23T10:54:06;3.00;;;0.70;;
75655;SDS011;64252;51.094;13.714;2024-02-23T10:56:31;2.67;;;0.50;;
75655;SDS011;64252;51.094;13.714;2024-02-23T10:58:57;1.50;;;0.32;;
75655;SDS011;64252;51.094;13.714;2024-02-23T11:01:23;2.78;;;0.60;;
75655;SDS011;64252;51.094;13.714;2024-02-23T11:03:49;2.45;;;0.63;;
75655;SDS011;64252;51.094;13.714;2024-02-23T11:06:18;3.63;;;0.77;;
75655;SDS011;64252;51.094;13.714;2024-02-23T11:08:46;2.55;;;0.50;;
75655;SDS011;64252;51.094;13.714;2024-02-23T11:11:16;4.28;;;0.77;;
75655;SDS011;64252;51.094;13.714;2024-02-23T11:13:45;2.78;;;0.50;;
75655;SDS011;64252;51.094;13.714;2024-02-23T11:16:20;3.20;;;0.80;;
75655;SDS011;64252;51.094;13.714;2024-02-23T11:18:47;2.60;;;0.60;;
75655;SDS011;64252;51.094;13.714;2024-02-23T11:21:12;3.88;;;0.73;;
75655;SDS011;64252;51.094;13.714;2024-02-23T11:23:45;4.43;;;0.90;;
75655;SDS011;64252;51.094;13.714;2024-02-23T11:26:15;3.33;;;0.68;;
75655;SDS011;64252;51.094;13.714;2024-02-23T11:28:47;3.30;;;0.52;;
75655;SDS011;64252;51.094;13.714;2024-02-23T11:31:14;2.40;;;0.60;;
75655;SDS011;64252;51.094;13.714;2024-02-23T11:33:47;9.15;;;1.65;;
75655;SDS011;64252;51.094;13.714;2024-02-23T11:36:21;3.35;;;0.70;;
75655;SDS011;64252;51.094;13.714;2024-02-23T11:39:07;2.80;;;0.63;;
75655;SDS011;64252;51.094;13.714;2024-02-23T11:41:38;2.40;;;0.40;;
75655;SDS011;64252;51.094;13.714;2024-02-23T11:44:04;3.58;;;1.00;;
75655;SDS011;64252;51.094;13.714;2024-02-23T11:46:32;2.63;;;0.52;;
75655;SDS011;64252;51.094;13.714;2024-02-23T11:48:57;2.03;;;0.60;;
75655;SDS011;64252;51.094;13.714;2024-02-23T11:51:24;2.13;;;0.45;;
75655;SDS011;64252;51.094;13.714;2024-02-23T11:53:52;5.55;;;0.90;;
75655;SDS011;64252;51.094;13.714;2024-02-23T11:56:18;4.35;;;0.70;;
75655;SDS011;64252;51.094;13.714;2024-02-23T11:58:46;3.80;;;0.88;;
75655;SDS011;64252;51.094;13.714;2024-02-23T12:01:12;2.97;;;0.70;;
75655;SDS011;64252;51.094;13.714;2024-02-23T12:03:37;2.47;;;0.47;;
75655;SDS011;64252;51.094;13.714;2024-02-23T12:06:04;2.63;;;0.50;;
75655;SDS011;64252;51.094;13.714;2024-02-23T12:22:12;5.35;;;0.80;;
75655;SDS011;64252;51.094;13.714;2024-02-23T12:32:06;1.90;;;0.50;;
75655;SDS011;64252;51.094;13.714;2024-02-23T12:34:32;1.83;;;0.50;;
75655;SDS011;64252;51.094;13.714;2024-02-23T12:36:58;4.63;;;0.70;;
75655;SDS011;64252;51.094;13.714;2024-02-23T12:39:24;1.67;;;0.40;;
75655;SDS011;64252;51.094;13.714;2024-02-23T12:41:49;3.53;;;0.50;;
75655;SDS011;64252;51.094;13.714;2024-02-23T12:44:16;8.27;;;1.08;;
75655;SDS011;64252;51.094;13.714;2024-02-23T12:46:41;5.13;;;0.65;;
75655;SDS011;64252;51.094;13.714;2024-02-23T12:49:07;5.38;;;0.90;;
75655;SDS011;64252;51.094;13.714;2024-02-23T12:51:32;5.63;;;1.55;;
75655;SDS011;64252;51.094;13.714;2024-02-23T12:53:59;2.88;;;0.63;;
75655;SDS011;64252;51.094;13.714;2024-02-23T12:56:25;4.18;;;0.90;;
75655;SDS011;64252;51.094;13.714;2024-02-23T12:58:51;2.42;;;0.65;;
75655;SDS011;64252;51.094;13.714;2024-02-23T13:01:18;2.03;;;0.40;;
75655;SDS011;64252;51.094;13.714;2024-02-23T13:03:44;1.58;;;0.40;;
75655;SDS011;64252;51.094;13.714;2024-02-23T13:06:10;1.75;;;0.47;;
75655;SDS011;64252;51.094;13.714;2024-02-23T13:08:36;2.78;;;0.47;;
75655;SDS011;64252;51.094;13.714;2024-02-23T13:11:04;2.42;;;0.57;;
75655;SDS011;64252;51.094;13.714;2024-02-23T13:13:29;3.63;;;0.70;;
75655;SDS011;64252;51.094;13.714;2024-02-23T13:15:55;1.33;;;0.40;;
75655;SDS011;64252;51.094;13.714;2024-02-23T13:18:23;1.15;;;0.30;;
75655;SDS011;64252;51.094;13.714;2024-02-23T13:20:49;1.17;;;0.40;;
75655;SDS011;64252;51.094;13.714;2024-02-23T13:23:15;1.45;;;0.30;;
75655;SDS011;64252;51.094;13.714;2024-02-23T13:25:41;1.77;;;0.43;;
75655;SDS011;64252;51.094;13.714;2024-02-23T13:28:08;1.63;;;0.40;;
75655;SDS011;64252;51.094;13.714;2024-02-23T13:30:35;2.05;;;0.30;;
75655;SDS011;64252;51.094;13.714;2024-02-23T13:33:01;2.38;;;0.40;;
75655;SDS011;64252;51.094;13.714;2024-02-23T13:35:27;1.73;;;0.45;;
75655;SDS011;64252;51.094;13.714;2024-02-23T13:37:53;2.75;;;0.50;;
75655;SDS011;64252;51.094;13.714;2024-02-23T13:40:19;2.63;;;0.52;;
75655;SDS011;64252;51.094;13.714;2024-02-23T13:42:45;1.58;;;0.50;;
75655;SDS011;64252;51.094;13.714;2024-02-23T13:45:14;2.85;;;0.98;;
75655;SDS011;64252;51.094;13.714;2024-02-23T13:47:42;2.85;;;0.63;;
75655;SDS011;64252;51.094;13.714;2024-02-23T13:50:09;1.40;;;0.35;;
75655;SDS011;64252;51.094;13.714;2024-02-23T13:52:36;2.25;;;0.45;;
75655;SDS011;64252;51.094;13.714;2024-02-23T13:55:05;2.72;;;0.55;;
75655;SDS011;64252;51.094;13.714;2024-02-23T13:57:31;4.97;;;0.60;;
75655;SDS011;64252;51.094;13.714;2024-02-23T13:59:57;4.15;;;0.60;;
75655;SDS011;64252;51.094;13.714;2024-02-23T14:02:26;2.33;;;0.50;;
75655;SDS011;64252;51.094;13.714;2024-02-23T14:04:59;1.25;;;0.38;;
75655;SDS011;64252;51.094;13.714;2024-02-23T14:07:28;2.80;;;0.55;;
75655;SDS011;64252;51.094;13.714;2024-02-23T14:09:54;2.72;;;0.55;;
75655;SDS011;64252;51.094;13.714;2024-02-23T14:12:20;2.63;;;0.60;;
75655;SDS011;64252;51.094;13.714;2024-02-23T14:14:46;2.35;;;0.60;;
75655;SDS011;64252;51.094;13.714;2024-02-23T14:17:11;3.92;;;0.40;;
75655;SDS011;64252;51.094;13.714;2024-02-23T14:19:37;2.63;;;0.88;;
75655;SDS011;64252;51.094;13.714;2024-02-23T14:22:02;2.53;;;0.70;;
75655;SDS011;64252;51.094;13.714;2024-02-23T14:24:28;2.15;;;0.47;;
75655;SDS011;64252;51.094;13.714;2024-02-23T14:26:54;1.20;;;0.40;;
75655;SDS011;64252;51.094;13.714;2024-02-23T14:29:19;1.77;;;0.60;;
75655;SDS011;64252;51.094;13.714;2024-02-23T14:31:45;1.50;;;0.40;;
75655;SDS011;64252;51.094;13.714;2024-02-23T14:34:10;2.55;;;0.47;;
75655;SDS011;64252;51.094;13.714;2024-02-23T14:36:36;2.22;;;0.60;;
75655;SDS011;64252;51.094;13.714;2024-02-23T14:39:02;3.38;;;0.80;;
75655;SDS011;64252;51.094;13.714;2024-02-23T14:41:29;3.47;;;0.70;;
75655;SDS011;64252;51.094;13.714;2024-02-23T14:43:55;3.60;;;0.70;;
75655;SDS011;64252;51.094;13.714;2024-02-23T14:46:21;2.45;;;0.75;;
75655;SDS011;64252;51.094;13.714;2024-02-23T14:48:46;2.40;;;0.68;;
75655;SDS011;64252;51.094;13.714;2024-02-23T14:51:16;2.10;;;0.60;;
75655;SDS011;64252;51.094;13.714;2024-02-23T14:53:42;3.00;;;0.70;;
75655;SDS011;64252;51.094;13.714;2024-02-23T14:56:07;8.50;;;3.97;;
75655;SDS011;64252;51.094;13.714;2024-02-23T14:58:33;3.90;;;1.15;;
75655;SDS011;64252;51.094;13.714;2024-02-23T15:00:59;2.25;;;0.80;;
75655;SDS011;64252;51.094;13.714;2024-02-23T15:03:25;2.60;;;0.77;;
75655;SDS011;64252;51.094;13.714;2024-02-23T15:05:51;1.45;;;0.50;;
75655;SDS011;64252;51.094;13.714;2024-02-23T15:08:17;3.00;;;0.98;;
75655;SDS011;64252;51.094;13.714;2024-02-23T15:10:43;2.45;;;0.70;;
75655;SDS011;64252;51.094;13.714;2024-02-23T15:13:08;2.15;;;0.63;;
75655;SDS011;64252;51.094;13.714;2024-02-23T15:15:34;8.55;;;0.98;;
75655;SDS011;64252;51.094;13.714;2024-02-23T15:18:04;3.35;;;0.80;;
75655;SDS011;64252;51.094;13.714;2024-02-23T15:20:31;2.53;;;0.73;;
75655;SDS011;64252;51.094;13.714;2024-02-23T15:22:57;2.47;;;0.60;;
75655;SDS011;64252;51.094;13.714;2024-02-23T15:25:23;1.60;;;0.55;;
75655;SDS011;64252;51.094;13.714;2024-02-23T15:27:48;4.32;;;0.68;;
75655;SDS011;64252;51.094;13.714;2024-02-23T15:30:15;3.58;;;0.68;;
75655;SDS011;64252;51.094;13.714;2024-02-23T15:32:41;2.42;;;0.70;;
75655;SDS011;64252;51.094;13.714;2024-02-23T15:35:07;2.45;;;0.70;;
75655;SDS011;64252;51.094;13.714;2024-02-23T15:37:33;2.42;;;0.70;;
75655;SDS011;64252;51.094;13.714;2024-02-23T15:39:58;2.58;;;0.60;;
75655;SDS011;64252;51.094;13.714;2024-02-23T15:42:24;2.78;;;0.57;;
75655;SDS011;64252;51.094;13.714;2024-02-23T15:44:50;2.13;;;0.50;;
75655;SDS011;64252;51.094;13.714;2024-02-23T15:47:16;2.15;;;0.68;;
75655;SDS011;64252;51.094;13.714;2024-02-23T15:49:41;3.35;;;0.63;;
75655;SDS011;64252;51.094;13.714;2024-02-23T15:52:07;4.28;;;1.02;;
75655;SDS011;64252;51.094;13.714;2024-02-23T15:54:33;4.82;;;0.98;;
75655;SDS011;64252;51.094;13.714;2024-02-23T15:57:01;3.08;;;0.60;;
75655;SDS011;64252;51.094;13.714;2024-02-23T15:59:27;3.35;;;1.25;;
75655;SDS011;64252;51.094;13.714;2024-02-23T16:01:53;3.22;;;0.90;;
75655;SDS011;64252;51.094;13.714;2024-02-23T16:04:20;3.35;;;0.70;;
75655;SDS011;64252;51.094;13.714;2024-02-23T16:06:45;3.53;;;0.70;;
75655;SDS011;64252;51.094;13.714;2024-02-23T16:09:12;4.45;;;0.88;;
75655;SDS011;64252;51.094;13.714;2024-02-23T16:11:43;2.22;;;0.70;;
75655;SDS011;64252;51.094;13.714;2024-02-23T16:14:11;1.80;;;0.52;;
75655;SDS011;64252;51.094;13.714;2024-02-23T16:16:37;3.97;;;0.80;;
75655;SDS011;64252;51.094;13.714;2024-02-23T16:19:03;2.22;;;0.68;;
75655;SDS011;64252;51.094;13.714;2024-02-23T16:21:29;2.60;;;0.70;;
75655;SDS011;64252;51.094;13.714;2024-02-23T16:23:56;4.75;;;1.08;;
75655;SDS011;64252;51.094;13.714;2024-02-23T16:26:22;2.83;;;0.90;;
75655;SDS011;64252;51.094;13.714;2024-02-23T16:28:51;2.95;;;0.82;;
75655;SDS011;64252;51.094;13.714;2024-02-23T16:31:16;3.33;;;0.85;;
75655;SDS011;64252;51.094;13.714;2024-02-23T16:33:42;3.10;;;1.10;;
75655;SDS011;64252;51.094;13.714;2024-02-23T16:36:08;3.53;;;1.33;;
75655;SDS011;64252;51.094;13.714;2024-02-23T16:38:34;8.07;;;3.17;;
75655;SDS011;64252;51.094;13.714;2024-02-23T16:41:00;8.25;;;3.45;;
75655;SDS011;64252;51.094;13.714;2024-02-23T16:43:29;10.70;;;6.03;;
75655;SDS011;64252;51.094;13.714;2024-02-23T16:45:54;22.90;;;13.70;;